Time;durP1;ratioP1;P1;durP2;ratioP2;P2;SDS_P1;SDS_P2;PMS_P1;PMS_P2;Temp;Humidity;BMP_temperature;BMP_pressure;BME280_temperature;BME280_humidity;BME280_pressure;Samples;Min_cycle;Max_cycle;Signal;HPM_P1;HPM_P2
2021/10/09 00:01:49;;;;;;;;;;;8.70;99.20;;;;;;4987028;28;19924;-67
2021/10/09 00:04:15;;;;;;;;;;;8.80;99.30;;;;;;5001480;28;19910;-67
2021/10/09 00:06:40;;;;;;;;;;;8.70;99.30;;;;;;4999143;28;20289;-67
2021/10/09 00:09:06;;;;;;;;;;;8.70;99.30;;;;;;4993030;28;20019;-67
2021/10/09 00:11:38;;;;;;;;;;;8.70;99.40;;;;;;5004601;28;20008;-67
2021/10/09 00:14:13;;;;;;;;;;;8.70;99.40;;;;;;4993635;28;20565;-67
2021/10/09 00:16:42;;;;;;;;;;;8.70;99.40;;;;;;4995022;28;19963;-67
2021/10/09 00:19:08;;;;;;;;;;;8.70;99.40;;;;;;5001807;28;19909;-67
2021/10/09 00:21:33;;;;;;;;;;;8.70;99.40;;;;;;4993066;28;20612;-67
2021/10/09 00:24:00;;;;;;;;;;;8.60;99.40;;;;;;4998430;28;19917;-67
2021/10/09 00:26:26;;;;;;;;;;;8.60;99.40;;;;;;4993089;28;19914;-67
2021/10/09 00:28:51;;;;;;;;;;;8.60;99.40;;;;;;4992146;28;19944;-67
2021/10/09 00:31:17;;;;;;;;;;;8.50;99.50;;;;;;4994634;28;19924;-67
2021/10/09 00:33:42;;;;;;;;;;;8.50;99.50;;;;;;5000711;28;20291;-66
2021/10/09 00:36:08;;;;;;;;;;;8.50;99.50;;;;;;4990490;28;19932;-67
2021/10/09 00:38:34;;;;;;;;;;;8.50;99.50;;;;;;5001246;28;19917;-67
2021/10/09 00:40:59;;;;;;;;;;;8.50;99.50;;;;;;4994875;28;20288;-67
2021/10/09 00:43:25;;;;;;;;;;;8.50;99.50;;;;;;4986911;28;19910;-66
2021/10/09 00:45:51;;;;;;;;;;;8.40;99.50;;;;;;5000038;28;20353;-67
2021/10/09 00:48:17;;;;;;;;;;;8.50;99.50;;;;;;4993442;28;19916;-66
2021/10/09 00:50:43;;;;;;;;;;;8.30;99.50;;;;;;4992792;28;19918;-67
2021/10/09 00:53:08;;;;;;;;;;;8.40;99.50;;;;;;4993388;28;20265;-67
2021/10/09 00:55:34;;;;;;;;;;;8.30;99.50;;;;;;4995578;28;19910;-66
2021/10/09 00:58:01;;;;;;;;;;;8.30;99.50;;;;;;4990862;28;20369;-67
2021/10/09 01:00:27;;;;;;;;;;;8.30;99.60;;;;;;4990496;28;19913;-67
2021/10/09 01:02:52;;;;;;;;;;;8.30;99.60;;;;;;4994119;28;19913;-67
2021/10/09 01:05:19;;;;;;;;;;;8.20;99.50;;;;;;4995249;28;19913;-67
2021/10/09 01:07:44;;;;;;;;;;;8.20;99.50;;;;;;4997563;28;20124;-67
2021/10/09 01:10:10;;;;;;;;;;;8.20;99.50;;;;;;4949958;28;1152662;-67
2021/10/09 01:12:35;;;;;;;;;;;8.20;99.60;;;;;;4990758;28;19966;-66
2021/10/09 01:15:16;;;;;;;;;;;8.10;99.60;;;;;;5002571;28;19936;-67
2021/10/09 01:17:42;;;;;;;;;;;8.10;99.60;;;;;;4990954;28;19910;-67
2021/10/09 01:20:10;;;;;;;;;;;8.10;99.60;;;;;;4994920;28;20287;-67
2021/10/09 01:22:35;;;;;;;;;;;8.00;99.50;;;;;;4994581;28;20262;-67
2021/10/09 01:25:01;;;;;;;;;;;8.00;99.60;;;;;;4997256;28;19944;-67
2021/10/09 01:27:26;;;;;;;;;;;8.00;99.60;;;;;;4994156;28;20087;-67
2021/10/09 01:29:52;;;;;;;;;;;8.00;99.60;;;;;;4990485;28;19917;-66
2021/10/09 01:32:17;;;;;;;;;;;7.90;99.60;;;;;;4996244;28;19917;-67
2021/10/09 01:34:42;;;;;;;;;;;7.90;99.60;;;;;;4993513;28;20000;-67
2021/10/09 01:37:08;;;;;;;;;;;7.80;99.60;;;;;;4986945;28;19913;-65
2021/10/09 01:39:33;;;;;;;;;;;7.80;99.60;;;;;;4990004;28;19910;-67
2021/10/09 01:41:59;;;;;;;;;;;7.70;99.60;;;;;;4984539;28;20008;-67
2021/10/09 01:44:24;;;;;;;;;;;7.70;99.60;;;;;;4997813;28;19971;-66
2021/10/09 01:46:50;;;;;;;;;;;7.70;99.60;;;;;;4995915;28;19917;-67
2021/10/09 01:49:16;;;;;;;;;;;7.70;99.60;;;;;;4999083;28;19914;-66
2021/10/09 01:51:41;;;;;;;;;;;7.60;99.60;;;;;;5002907;28;20304;-66
2021/10/09 01:54:07;;;;;;;;;;;7.60;99.70;;;;;;4994451;28;19921;-67
2021/10/09 01:56:32;;;;;;;;;;;7.60;99.70;;;;;;4996739;28;19909;-67
2021/10/09 01:58:58;;;;;;;;;;;7.60;99.60;;;;;;4996993;28;20399;-67
2021/10/09 02:01:23;;;;;;;;;;;7.60;99.70;;;;;;4992339;28;19909;-67
2021/10/09 02:03:49;;;;;;;;;;;7.50;99.60;;;;;;4985747;28;19932;-67
2021/10/09 02:06:15;;;;;;;;;;;7.50;99.60;;;;;;4996106;28;19921;-67
2021/10/09 02:08:41;;;;;;;;;;;7.40;99.60;;;;;;4995103;28;19913;-67
2021/10/09 02:11:10;;;;;;;;;;;7.40;99.60;;;;;;4998933;28;20265;-67
2021/10/09 02:26:32;;;;;;;;;;;7.40;99.70;;;;;;5005485;28;19913;-66
2021/10/09 02:28:58;;;;;;;;;;;7.30;99.70;;;;;;5002427;28;19919;-67
2021/10/09 02:31:24;;;;;;;;;;;7.30;99.70;;;;;;5005260;28;19928;-67
2021/10/09 02:33:49;;;;;;;;;;;7.30;99.70;;;;;;4999154;28;19999;-67
2021/10/09 02:36:15;;;;;;;;;;;7.20;99.70;;;;;;4995715;28;19916;-70
2021/10/09 02:38:40;;;;;;;;;;;7.20;99.60;;;;;;4993511;28;19910;-67
2021/10/09 02:41:06;;;;;;;;;;;7.10;99.70;;;;;;4996929;28;21103;-68
2021/10/09 02:43:31;;;;;;;;;;;7.10;99.70;;;;;;4996101;28;19909;-68
2021/10/09 02:45:56;;;;;;;;;;;7.10;99.60;;;;;;5001622;28;19964;-67
2021/10/09 02:48:22;;;;;;;;;;;7.10;99.70;;;;;;4995994;28;20214;-68
2021/10/09 02:50:48;;;;;;;;;;;7.00;99.60;;;;;;5000123;28;19917;-67
2021/10/09 02:53:13;;;;;;;;;;;7.00;99.70;;;;;;4997790;28;20494;-67
2021/10/09 02:55:39;;;;;;;;;;;6.90;99.70;;;;;;5000806;28;19910;-68
2021/10/09 02:58:04;;;;;;;;;;;6.90;99.70;;;;;;4998323;28;20381;-68
2021/10/09 03:00:30;;;;;;;;;;;6.90;99.70;;;;;;4989728;28;20009;-68
2021/10/09 03:02:56;;;;;;;;;;;6.90;99.70;;;;;;4992457;28;19910;-67
2021/10/09 03:05:21;;;;;;;;;;;6.90;99.70;;;;;;4990930;28;20431;-68
2021/10/09 03:07:47;;;;;;;;;;;6.80;99.70;;;;;;4998098;28;19916;-68
2021/10/09 03:10:13;;;;;;;;;;;6.80;99.60;;;;;;5004773;28;20187;-67
2021/10/09 03:12:38;;;;;;;;;;;6.80;99.60;;;;;;4998552;28;19963;-68
2021/10/09 03:15:07;;;;;;;;;;;6.70;99.60;;;;;;4996669;28;19940;-67
2021/10/09 03:17:33;;;;;;;;;;;6.60;99.60;;;;;;4993007;28;20458;-68
2021/10/09 03:19:58;;;;;;;;;;;6.70;99.70;;;;;;5001515;28;19916;-67
2021/10/09 03:22:24;;;;;;;;;;;6.60;99.70;;;;;;4992039;28;19920;-67
2021/10/09 03:24:49;;;;;;;;;;;6.60;99.70;;;;;;4997354;28;20167;-66
2021/10/09 03:27:15;;;;;;;;;;;6.60;99.70;;;;;;4989548;28;20017;-66
2021/10/09 03:29:40;;;;;;;;;;;6.60;99.70;;;;;;4998108;28;19967;-68
2021/10/09 03:32:06;;;;;;;;;;;6.50;99.60;;;;;;5000000;28;19924;-66
2021/10/09 03:34:35;;;;;;;;;;;6.50;99.60;;;;;;4997578;28;19910;-66
2021/10/09 03:37:01;;;;;;;;;;;6.40;99.60;;;;;;4997493;28;19920;-67
2021/10/09 03:39:26;;;;;;;;;;;6.40;99.70;;;;;;4998508;28;19909;-67
2021/10/09 03:41:57;;;;;;;;;;;6.30;99.60;;;;;;4990709;28;19910;-67
2021/10/09 03:44:22;;;;;;;;;;;6.30;99.60;;;;;;5001603;28;19949;-67
2021/10/09 03:47:50;;;;;;;;;;;6.20;99.60;;;;;;5000616;28;20518;-67
2021/10/09 03:54:55;;;;;;;;;;;6.10;99.70;;;;;;4999554;28;19989;-66
2021/10/09 03:57:21;;;;;;;;;;;6.00;99.60;;;;;;4995072;28;20000;-68
2021/10/09 03:59:46;;;;;;;;;;;5.90;99.60;;;;;;4994221;28;20403;-67
2021/10/09 04:02:11;;;;;;;;;;;5.90;99.60;;;;;;4989677;28;19956;-67
2021/10/09 04:04:37;;;;;;;;;;;5.80;99.70;;;;;;5002092;28;20268;-66
2021/10/09 04:07:02;;;;;;;;;;;5.80;99.70;;;;;;4993921;28;19916;-67
2021/10/09 04:09:28;;;;;;;;;;;5.70;99.60;;;;;;5000799;28;20331;-66
2021/10/09 04:11:53;;;;;;;;;;;5.70;99.60;;;;;;4998247;28;19924;-67
2021/10/09 04:14:19;;;;;;;;;;;5.70;99.70;;;;;;5000483;28;19913;-67
2021/10/09 04:16:44;;;;;;;;;;;5.60;99.60;;;;;;4997317;28;20001;-67
2021/10/09 04:19:10;;;;;;;;;;;5.60;99.70;;;;;;4996959;28;20104;-66
2021/10/09 04:21:35;;;;;;;;;;;5.60;99.70;;;;;;4995783;28;19929;-66
2021/10/09 04:24:01;;;;;;;;;;;5.60;99.70;;;;;;4997047;28;20365;-65
2021/10/09 04:26:26;;;;;;;;;;;5.60;99.70;;;;;;4990702;28;19920;-65
2021/10/09 04:28:52;;;;;;;;;;;5.60;99.70;;;;;;4995867;28;19910;-65
2021/10/09 04:31:17;;;;;;;;;;;5.60;99.70;;;;;;4994977;28;19918;-64
2021/10/09 04:33:43;;;;;;;;;;;5.60;99.70;;;;;;4998710;28;19917;-66
2021/10/09 04:36:08;;;;;;;;;;;5.60;99.70;;;;;;4986478;28;19965;-66
2021/10/09 04:38:34;;;;;;;;;;;5.60;99.70;;;;;;4993698;28;20360;-64
2021/10/09 04:41:00;;;;;;;;;;;5.60;99.70;;;;;;5000005;28;20035;-65
2021/10/09 04:43:26;;;;;;;;;;;5.60;99.70;;;;;;4993187;28;19940;-66
2021/10/09 04:45:51;;;;;;;;;;;5.60;99.80;;;;;;4996429;28;19914;-65
2021/10/09 04:48:17;;;;;;;;;;;5.60;99.70;;;;;;4995350;28;20017;-64
2021/10/09 04:50:42;;;;;;;;;;;5.60;99.70;;;;;;5003091;28;19917;-65
2021/10/09 04:53:08;;;;;;;;;;;5.60;99.70;;;;;;4998331;28;19989;-65
2021/10/09 04:55:33;;;;;;;;;;;5.60;99.70;;;;;;4991672;28;20008;-65
2021/10/09 04:57:58;;;;;;;;;;;5.50;99.60;;;;;;4992028;28;20164;-65
2021/10/09 05:00:24;;;;;;;;;;;5.50;99.70;;;;;;4994962;28;19968;-65
2021/10/09 05:02:49;;;;;;;;;;;5.50;99.70;;;;;;4990631;28;19920;-66
2021/10/09 05:05:15;;;;;;;;;;;5.40;99.70;;;;;;5000859;28;19913;-66
2021/10/09 05:07:40;;;;;;;;;;;5.40;99.60;;;;;;4993546;28;19909;-65
2021/10/09 05:10:08;;;;;;;;;;;5.40;99.60;;;;;;4998722;28;19928;-65
2021/10/09 05:12:34;;;;;;;;;;;5.30;99.60;;;;;;4992920;28;19957;-66
2021/10/09 05:14:59;;;;;;;;;;;5.30;99.60;;;;;;4999230;28;19960;-65
2021/10/09 05:17:25;;;;;;;;;;;5.30;99.60;;;;;;4992672;28;19944;-64
2021/10/09 05:19:51;;;;;;;;;;;5.30;99.70;;;;;;4995206;28;19952;-65
2021/10/09 05:22:16;;;;;;;;;;;5.30;99.60;;;;;;4991522;28;19917;-66
2021/10/09 05:24:42;;;;;;;;;;;5.20;99.60;;;;;;4999673;28;19916;-65
2021/10/09 05:27:07;;;;;;;;;;;5.20;99.60;;;;;;4989414;28;19909;-66
2021/10/09 05:29:33;;;;;;;;;;;5.30;99.70;;;;;;4996833;28;20142;-65
2021/10/09 05:32:06;;;;;;;;;;;5.20;99.60;;;;;;4995550;28;19913;-66
2021/10/09 05:34:31;;;;;;;;;;;5.20;99.60;;;;;;4995829;28;20361;-65
2021/10/09 05:36:58;;;;;;;;;;;5.20;99.60;;;;;;4984991;28;19916;-65
2021/10/09 05:39:24;;;;;;;;;;;5.20;99.60;;;;;;4993298;28;19956;-65
2021/10/09 05:41:49;;;;;;;;;;;5.10;99.60;;;;;;4993909;28;19918;-63
2021/10/09 05:44:15;;;;;;;;;;;5.10;99.60;;;;;;4995435;28;19913;-64
2021/10/09 05:46:40;;;;;;;;;;;5.10;99.60;;;;;;4998496;28;19910;-64
2021/10/09 05:49:06;;;;;;;;;;;5.10;99.60;;;;;;4996896;28;19945;-65
2021/10/09 05:51:35;;;;;;;;;;;5.10;99.60;;;;;;4998129;28;19960;-64
2021/10/09 05:54:47;;;;;;;;;;;5.10;99.50;;;;;;4998935;28;19944;-64
2021/10/09 05:57:03;;;;;;;;;;;5.10;99.50;;;;;;4986863;28;20384;-64
2021/10/09 06:02:16;;;;;;;;;;;5.10;99.50;;;;;;4995259;28;19936;-66
2021/10/09 06:37:44;;;;;;;;;;;5.60;99.20;;;;;;4995693;28;20411;-66
2021/10/09 06:43:12;;;;;;;;;;;5.80;99.10;;;;;;4998050;28;20042;-66
2021/10/09 06:45:58;;;;;;;;;;;5.90;99.00;;;;;;4993628;28;19910;-64
2021/10/09 06:48:40;;;;;;;;;;;5.90;99.00;;;;;;4999531;28;20532;-66
2021/10/09 06:59:32;;;;;;;;;;;6.10;98.70;;;;;;4999306;28;19999;-65
2021/10/09 07:01:58;;;;;;;;;;;6.10;98.60;;;;;;4993410;28;19924;-66
2021/10/09 07:04:24;;;;;;;;;;;6.20;98.50;;;;;;4997582;28;19909;-66
2021/10/09 07:06:51;;;;;;;;;;;6.20;98.40;;;;;;5000857;28;19916;-66
2021/10/09 07:09:17;;;;;;;;;;;6.30;98.40;;;;;;4996926;28;20008;-65
2021/10/09 07:11:42;;;;;;;;;;;6.30;98.40;;;;;;4999161;28;20404;-66
2021/10/09 07:14:08;;;;;;;;;;;6.40;98.30;;;;;;4995094;28;19920;-66
2021/10/09 07:16:33;;;;;;;;;;;6.40;98.20;;;;;;5002755;28;20368;-65
2021/10/09 07:19:01;;;;;;;;;;;6.50;98.10;;;;;;4999061;28;19972;-66
2021/10/09 07:21:26;;;;;;;;;;;6.50;98.10;;;;;;4998240;28;19909;-66
2021/10/09 07:23:52;;;;;;;;;;;6.60;98.00;;;;;;4995760;28;19918;-65
2021/10/09 07:26:17;;;;;;;;;;;6.70;97.80;;;;;;4995827;28;19905;-66
2021/10/09 07:28:43;;;;;;;;;;;6.70;97.60;;;;;;4994167;28;19920;-67
2021/10/09 07:31:09;;;;;;;;;;;6.80;97.40;;;;;;4997703;28;19918;-65
2021/10/09 07:33:34;;;;;;;;;;;6.90;97.20;;;;;;4997809;28;20268;-66
2021/10/09 07:36:00;;;;;;;;;;;6.90;97.00;;;;;;5003752;28;19909;-66
2021/10/09 07:38:25;;;;;;;;;;;7.00;96.90;;;;;;4998282;28;20004;-65
2021/10/09 07:40:51;;;;;;;;;;;7.10;96.70;;;;;;4999025;28;20190;-66
2021/10/09 07:43:16;;;;;;;;;;;7.10;96.50;;;;;;4995776;28;19984;-66
2021/10/09 07:45:42;;;;;;;;;;;7.20;96.40;;;;;;5000605;28;19956;-66
2021/10/09 07:48:08;;;;;;;;;;;7.20;96.00;;;;;;5002033;28;20332;-66
2021/10/09 07:50:33;;;;;;;;;;;7.40;96.00;;;;;;4995805;28;20016;-67
2021/10/09 07:52:59;;;;;;;;;;;7.50;95.70;;;;;;4988845;28;19965;-66
2021/10/09 07:55:25;;;;;;;;;;;7.50;94.50;;;;;;4999488;28;20016;-66
2021/10/09 07:57:50;;;;;;;;;;;7.70;94.00;;;;;;4997667;28;20003;-66
2021/10/09 08:00:16;;;;;;;;;;;7.80;93.40;;;;;;4996770;28;19914;-67
2021/10/09 08:02:48;;;;;;;;;;;8.00;93.90;;;;;;4991648;28;20347;-65
2021/10/09 08:05:13;;;;;;;;;;;8.10;93.80;;;;;;4997965;28;20000;-64
2021/10/09 08:07:39;;;;;;;;;;;8.20;92.40;;;;;;4997530;28;20443;-65
2021/10/09 08:10:04;;;;;;;;;;;8.50;92.40;;;;;;4992554;28;19917;-65
2021/10/09 08:12:30;;;;;;;;;;;8.60;90.20;;;;;;4991678;28;19919;-64
2021/10/09 08:14:55;;;;;;;;;;;8.70;89.80;;;;;;4996810;28;19944;-65
2021/10/09 08:17:21;;;;;;;;;;;8.90;90.20;;;;;;4993448;28;20695;-64
2021/10/09 08:19:46;;;;;;;;;;;8.90;88.50;;;;;;4999760;28;20058;-64
2021/10/09 08:22:12;;;;;;;;;;;9.00;88.70;;;;;;4996140;28;20376;-65
2021/10/09 08:35:34;;;;;;;;;;;9.80;87.00;;;;;;4990973;28;19925;-65
2021/10/09 08:40:45;;;;;;;;;;;9.90;84.70;;;;;;5003533;28;19920;-65
2021/10/09 08:43:10;;;;;;;;;;;10.10;85.90;;;;;;4993362;28;19910;-63
2021/10/09 08:45:36;;;;;;;;;;;10.40;85.90;;;;;;4990758;28;20356;-63
2021/10/09 08:48:01;;;;;;;;;;;10.20;83.20;;;;;;4994874;28;20019;-64
2021/10/09 08:50:27;;;;;;;;;;;10.70;84.70;;;;;;4999891;28;19983;-64
2021/10/09 08:52:55;;;;;;;;;;;10.70;80.50;;;;;;4997268;28;20365;-65
2021/10/09 08:55:23;;;;;;;;;;;11.10;83.10;;;;;;4992353;28;19917;-64
2021/10/09 08:57:49;;;;;;;;;;;11.30;82.40;;;;;;5000478;28;20151;-64
2021/10/09 09:00:19;;;;;;;;;;;11.30;80.60;;;;;;4999476;28;20292;-65
2021/10/09 09:02:53;;;;;;;;;;;11.70;79.70;;;;;;4993658;28;20088;-66
2021/10/09 09:05:31;;;;;;;;;;;11.60;79.10;;;;;;5002072;28;19917;-64
2021/10/09 09:08:30;;;;;;;;;;;11.90;77.80;;;;;;4998765;28;19913;-65
2021/10/09 09:33:23;;;;;;;;;;;13.10;71.90;;;;;;5000228;28;20368;-64
2021/10/09 09:41:15;;;;;;;;;;;13.00;68.10;;;;;;4999699;28;20343;-64
2021/10/09 09:43:42;;;;;;;;;;;13.20;66.00;;;;;;5000239;28;19910;-65
2021/10/09 09:46:17;;;;;;;;;;;13.50;67.90;;;;;;4996849;28;20435;-65
2021/10/09 09:48:43;;;;;;;;;;;13.80;68.20;;;;;;5003558;28;19913;-64
2021/10/09 09:51:10;;;;;;;;;;;14.00;67.40;;;;;;4997678;28;19928;-64
2021/10/09 09:53:36;;;;;;;;;;;13.70;63.30;;;;;;5001013;28;19916;-64
2021/10/09 09:56:02;;;;;;;;;;;13.50;61.80;;;;;;4999504;28;19913;-65
2021/10/09 09:58:28;;;;;;;;;;;13.90;64.80;;;;;;4994445;28;19917;-63
2021/10/09 10:00:59;;;;;;;;;;;14.20;62.90;;;;;;4998677;28;20300;-63
2021/10/09 10:03:25;;;;;;;;;;;14.50;60.90;;;;;;4997775;28;19917;-65
2021/10/09 10:05:50;;;;;;;;;;;14.50;60.60;;;;;;5009191;28;19909;-64
2021/10/09 10:08:16;;;;;;;;;;;14.40;60.10;;;;;;4990446;28;19910;-63
2021/10/09 10:10:42;;;;;;;;;;;14.60;59.60;;;;;;4998156;28;20109;-69
2021/10/09 10:13:08;;;;;;;;;;;14.80;60.60;;;;;;4993509;28;20009;-64
2021/10/09 10:15:34;;;;;;;;;;;14.90;57.90;;;;;;5007094;28;19909;-65
2021/10/09 10:17:59;;;;;;;;;;;14.70;58.10;;;;;;5010982;28;19909;-65
2021/10/09 10:20:45;;;;;;;;;;;15.00;59.00;;;;;;5005465;28;19964;-65
2021/10/09 10:23:10;;;;;;;;;;;15.00;55.20;;;;;;5004597;28;19910;-65
2021/10/09 10:25:37;;;;;;;;;;;14.60;55.60;;;;;;5000356;28;19920;-65
2021/10/09 10:28:09;;;;;;;;;;;14.60;56.60;;;;;;4993268;28;20266;-65
2021/10/09 10:30:35;;;;;;;;;;;14.90;57.70;;;;;;5007882;28;19917;-65
2021/10/09 10:33:01;;;;;;;;;;;14.80;55.90;;;;;;4996432;28;20290;-65
2021/10/09 10:35:30;;;;;;;;;;;14.80;55.90;;;;;;4996145;28;19925;-65
2021/10/09 10:37:58;;;;;;;;;;;15.00;56.70;;;;;;4997368;28;19910;-63
2021/10/09 10:40:42;;;;;;;;;;;15.10;58.20;;;;;;5004573;28;20139;-65
2021/10/09 10:43:27;;;;;;;;;;;14.80;57.80;;;;;;4998601;28;20395;-63
2021/10/09 10:45:52;;;;;;;;;;;14.80;54.40;;;;;;5000588;28;20368;-65
2021/10/09 10:59:33;;;;;;;;;;;15.50;53.00;;;;;;4999276;28;19964;-65
2021/10/09 11:02:12;;;;;;;;;;;15.80;52.70;;;;;;4994223;28;19920;-65
2021/10/09 11:04:42;;;;;;;;;;;15.80;52.60;;;;;;5004245;28;19967;-65
2021/10/09 11:07:08;;;;;;;;;;;15.70;49.80;;;;;;4996591;28;21819;-64
2021/10/09 11:09:34;;;;;;;;;;;16.10;52.10;;;;;;4995454;28;19972;-66
2021/10/09 11:12:00;;;;;;;;;;;16.60;52.70;;;;;;4997788;28;19941;-66
2021/10/09 11:14:26;;;;;;;;;;;16.30;48.30;;;;;;4992206;28;19960;-65
2021/10/09 11:16:58;;;;;;;;;;;16.10;48.40;;;;;;4996437;28;19956;-63
2021/10/09 11:19:59;;;;;;;;;;;16.60;49.30;;;;;;4998987;28;20295;-66
2021/10/09 11:22:35;;;;;;;;;;;16.30;47.10;;;;;;4934284;28;19917;-65
2021/10/09 11:25:01;;;;;;;;;;;16.60;46.40;;;;;;4993153;28;20003;-64
2021/10/09 11:27:32;;;;;;;;;;;16.60;44.30;;;;;;4998507;28;19944;-65
2021/10/09 11:30:05;;;;;;;;;;;17.20;44.80;;;;;;4994999;28;19921;-63
2021/10/09 11:32:32;;;;;;;;;;;17.00;42.70;;;;;;4988445;28;19914;-64
2021/10/09 11:34:57;;;;;;;;;;;16.70;44.70;;;;;;4996438;28;19945;-65
2021/10/09 11:37:23;;;;;;;;;;;17.20;44.20;;;;;;4993637;28;20019;-66
2021/10/09 11:39:52;;;;;;;;;;;17.40;44.70;;;;;;5000747;28;19913;-65
2021/10/09 11:42:22;;;;;;;;;;;17.30;42.90;;;;;;4993918;28;19918;-64
2021/10/09 11:45:03;;;;;;;;;;;17.50;44.50;;;;;;4997442;28;19917;-65
2021/10/09 11:53:28;;;;;;;;;;;17.90;42.20;;;;;;4994004;28;19913;-66
2021/10/09 11:56:03;;;;;;;;;;;18.20;39.90;;;;;;5004961;28;19964;-65
2021/10/09 11:58:29;;;;;;;;;;;18.70;39.70;;;;;;5001384;28;19936;-65
2021/10/09 12:00:55;;;;;;;;;;;18.00;39.70;;;;;;4994097;28;19921;-64
2021/10/09 12:03:26;;;;;;;;;;;18.50;38.50;;;;;;4996392;28;20377;-66
2021/10/09 12:05:54;;;;;;;;;;;18.20;39.20;;;;;;4995458;28;19996;-63
2021/10/09 12:11:11;;;;;;;;;;;18.00;39.80;;;;;;4990158;28;19913;-65
2021/10/09 12:13:57;;;;;;;;;;;18.30;39.70;;;;;;5000780;28;19936;-65
2021/10/09 12:16:24;;;;;;;;;;;17.60;39.70;;;;;;5007678;28;19913;-63
2021/10/09 12:18:54;;;;;;;;;;;19.00;39.80;;;;;;4993740;28;20007;-65
2021/10/09 12:21:22;;;;;;;;;;;19.00;39.60;;;;;;4996825;28;19932;-64
2021/10/09 12:23:48;;;;;;;;;;;18.90;40.60;;;;;;4990551;28;20016;-64
2021/10/09 12:26:16;;;;;;;;;;;19.40;40.10;;;;;;4991995;28;20067;-65
2021/10/09 12:29:00;;;;;;;;;;;19.60;40.60;;;;;;4995129;28;19909;-63
2021/10/09 12:31:27;;;;;;;;;;;19.60;39.10;;;;;;4996871;28;20284;-66
2021/10/09 12:33:52;;;;;;;;;;;19.00;38.30;;;;;;4993273;28;20403;-64
2021/10/09 12:36:38;;;;;;;;;;;18.50;38.60;;;;;;4989285;28;20004;-66
2021/10/09 12:39:23;;;;;;;;;;;19.40;38.40;;;;;;4990604;28;19916;-66
2021/10/09 12:41:50;;;;;;;;;;;19.30;37.50;;;;;;4999350;28;19918;-63
2021/10/09 12:44:16;;;;;;;;;;;19.70;36.70;;;;;;4992830;28;19964;-65
2021/10/09 12:46:42;;;;;;;;;;;18.20;36.80;;;;;;4993494;28;19913;-65
2021/10/09 12:49:07;;;;;;;;;;;19.40;37.80;;;;;;4994064;28;19915;-65
2021/10/09 12:51:33;;;;;;;;;;;19.50;37.50;;;;;;4993246;28;19921;-65
2021/10/09 12:54:04;;;;;;;;;;;20.00;36.30;;;;;;4992309;28;20444;-64
2021/10/09 12:56:29;;;;;;;;;;;19.90;36.90;;;;;;4998385;28;20020;-64
2021/10/09 12:58:55;;;;;;;;;;;20.70;36.20;;;;;;4995361;28;20004;-65
2021/10/09 13:01:20;;;;;;;;;;;19.90;34.60;;;;;;4996866;28;19914;-63
2021/10/09 13:03:46;;;;;;;;;;;19.40;36.90;;;;;;4991462;28;19909;-66
2021/10/09 13:06:11;;;;;;;;;;;20.10;37.00;;;;;;4993429;28;19909;-65
2021/10/09 13:08:38;;;;;;;;;;;20.00;35.70;;;;;;4996695;28;20011;-65
2021/10/09 13:11:04;;;;;;;;;;;18.80;34.80;;;;;;4999254;28;19913;-65
2021/10/09 13:13:29;;;;;;;;;;;19.30;36.30;;;;;;4995443;28;19914;-64
2021/10/09 13:15:55;;;;;;;;;;;19.70;36.00;;;;;;4995563;28;20380;-65
2021/10/09 13:18:20;;;;;;;;;;;20.30;34.30;;;;;;4993543;28;20292;-65
2021/10/09 13:20:46;;;;;;;;;;;21.20;34.20;;;;;;4996644;28;19913;-65
2021/10/09 13:23:11;;;;;;;;;;;20.90;31.40;;;;;;4989883;28;19913;-65
2021/10/09 13:25:37;;;;;;;;;;;21.50;32.60;;;;;;4993216;28;19925;-65
2021/10/09 13:28:04;;;;;;;;;;;21.20;31.20;;;;;;4991233;28;19914;-65
2021/10/09 13:30:30;;;;;;;;;;;21.20;31.90;;;;;;4994394;28;19971;-65
2021/10/09 13:32:56;;;;;;;;;;;21.50;32.40;;;;;;4988370;28;19909;-65
2021/10/09 13:35:22;;;;;;;;;;;22.00;30.90;;;;;;4991132;28;19909;-65
2021/10/09 13:37:52;;;;;;;;;;;21.20;33.20;;;;;;4996320;28;19916;-65
2021/10/09 13:40:17;;;;;;;;;;;21.40;34.00;;;;;;4994558;28;19910;-66
2021/10/09 13:42:43;;;;;;;;;;;22.00;34.20;;;;;;5000401;28;20284;-63
2021/10/09 13:45:08;;;;;;;;;;;21.60;33.10;;;;;;4996648;28;20088;-65
2021/10/09 13:47:34;;;;;;;;;;;21.90;32.30;;;;;;4987811;28;20400;-65
2021/10/09 13:50:00;;;;;;;;;;;21.00;35.90;;;;;;4994041;28;19917;-64
2021/10/09 13:52:25;;;;;;;;;;;20.70;34.60;;;;;;4998845;28;20319;-67
2021/10/09 13:54:51;;;;;;;;;;;21.20;35.20;;;;;;4995102;28;19930;-66
2021/10/09 13:57:16;;;;;;;;;;;22.00;32.60;;;;;;4995260;28;20364;-66
2021/10/09 13:59:42;;;;;;;;;;;20.80;31.90;;;;;;5004093;28;19918;-66
2021/10/09 14:02:08;;;;;;;;;;;20.50;33.60;;;;;;4992927;28;19956;-66
2021/10/09 14:04:37;;;;;;;;;;;21.10;33.00;;;;;;4997770;28;19916;-66
2021/10/09 14:07:03;;;;;;;;;;;21.20;34.60;;;;;;5001564;28;19915;-67
2021/10/09 14:09:29;;;;;;;;;;;21.30;33.50;;;;;;5000293;28;20023;-66
2021/10/09 14:11:54;;;;;;;;;;;21.30;33.50;;;;;;5004410;28;19979;-66
2021/10/09 14:14:22;;;;;;;;;;;20.50;35.90;;;;;;4991594;28;19914;-67
2021/10/09 14:16:48;;;;;;;;;;;21.00;35.30;;;;;;5004424;28;19964;-66
2021/10/09 14:19:13;;;;;;;;;;;21.30;35.50;;;;;;4996444;28;19922;-66
2021/10/09 14:21:39;;;;;;;;;;;20.90;35.70;;;;;;4999871;28;20039;-66
2021/10/09 14:24:04;;;;;;;;;;;21.00;34.80;;;;;;5002680;28;19917;-66
2021/10/09 14:26:30;;;;;;;;;;;20.60;35.20;;;;;;4997077;28;20524;-67
2021/10/09 14:28:55;;;;;;;;;;;20.90;36.10;;;;;;4995729;28;20360;-66
2021/10/09 14:31:22;;;;;;;;;;;21.10;35.70;;;;;;5000129;28;19913;-66
2021/10/09 14:33:48;;;;;;;;;;;20.20;37.30;;;;;;4993101;28;20309;-65
2021/10/09 14:36:13;;;;;;;;;;;19.80;36.10;;;;;;4995199;28;19940;-65
2021/10/09 14:38:39;;;;;;;;;;;20.00;36.70;;;;;;4997524;28;19914;-64
2021/10/09 14:41:06;;;;;;;;;;;20.20;36.30;;;;;;5000465;28;19910;-66
2021/10/09 14:43:34;;;;;;;;;;;20.60;36.20;;;;;;5002855;28;20365;-66
2021/10/09 14:47:06;;;;;;;;;;;20.60;36.40;;;;;;4998319;28;20482;-65
2021/10/09 14:48:49;;;;;;;;;;;19.60;36.40;;;;;;5003496;28;20063;-66
2021/10/09 14:51:22;;;;;;;;;;;20.40;35.80;;;;;;4995868;28;20374;-66
2021/10/09 15:01:27;;;;;;;;;;;19.70;37.30;;;;;;5002595;28;19913;-66
2021/10/09 15:18:23;;;;;;;;;;;19.40;38.60;;;;;;4986741;28;19932;-66
2021/10/09 15:20:50;;;;;;;;;;;19.00;38.80;;;;;;4994248;28;19975;-66
2021/10/09 15:23:16;;;;;;;;;;;18.30;39.80;;;;;;4998330;28;19925;-66
2021/10/09 15:25:43;;;;;;;;;;;18.10;40.90;;;;;;4995066;28;19909;-66
2021/10/09 15:28:08;;;;;;;;;;;18.20;40.60;;;;;;4992881;28;19909;-66
2021/10/09 15:30:34;;;;;;;;;;;18.10;41.00;;;;;;4999125;28;20297;-66
2021/10/09 15:32:59;;;;;;;;;;;18.10;43.10;;;;;;4991415;28;19933;-65
2021/10/09 15:35:25;;;;;;;;;;;18.10;42.30;;;;;;4995768;28;20403;-65
2021/10/09 15:37:51;;;;;;;;;;;18.10;42.10;;;;;;4992473;28;19910;-65
2021/10/09 15:40:19;;;;;;;;;;;18.10;43.30;;;;;;5004990;28;19914;-66
2021/10/09 15:42:49;;;;;;;;;;;18.10;42.30;;;;;;4997034;28;19920;-66
2021/10/09 15:45:20;;;;;;;;;;;18.00;43.20;;;;;;5000797;28;20150;-65
2021/10/09 15:47:46;;;;;;;;;;;17.50;45.60;;;;;;4993451;28;19913;-66
2021/10/09 15:50:12;;;;;;;;;;;17.50;46.60;;;;;;4996002;28;20381;-65
2021/10/09 15:52:37;;;;;;;;;;;17.50;45.70;;;;;;4990846;28;19918;-65
2021/10/09 15:55:03;;;;;;;;;;;17.00;46.80;;;;;;5002641;28;20156;-66
2021/10/09 15:57:29;;;;;;;;;;;16.60;47.50;;;;;;4999010;28;20004;-65
2021/10/09 15:59:54;;;;;;;;;;;16.20;48.70;;;;;;4989988;28;20300;-65
2021/10/09 16:02:20;;;;;;;;;;;15.50;48.60;;;;;;4992963;28;20072;-65
2021/10/09 16:04:46;;;;;;;;;;;15.00;50.90;;;;;;4991698;28;19987;-65
2021/10/09 16:07:12;;;;;;;;;;;14.60;51.20;;;;;;4991460;28;19972;-65
2021/10/09 16:09:37;;;;;;;;;;;14.30;54.10;;;;;;4989342;28;19914;-65
2021/10/09 16:12:03;;;;;;;;;;;13.90;54.50;;;;;;4998307;28;20412;-65
2021/10/09 16:14:28;;;;;;;;;;;13.80;55.50;;;;;;4991932;28;20574;-65
2021/10/09 16:16:54;;;;;;;;;;;13.50;56.60;;;;;;4989680;28;19914;-66
2021/10/09 16:19:20;;;;;;;;;;;13.30;57.30;;;;;;4992098;28;19916;-65
2021/10/09 16:21:48;;;;;;;;;;;13.00;58.00;;;;;;4992974;28;19952;-65
2021/10/09 16:24:14;;;;;;;;;;;12.90;59.00;;;;;;4998918;28;19916;-65
2021/10/09 16:26:40;;;;;;;;;;;12.70;59.80;;;;;;4989414;28;19914;-65
2021/10/09 16:29:06;;;;;;;;;;;12.60;60.70;;;;;;4994856;28;19910;-65
2021/10/09 16:31:34;;;;;;;;;;;12.40;60.80;;;;;;4992301;28;19921;-65
2021/10/09 16:34:00;;;;;;;;;;;12.20;61.10;;;;;;4990808;28;19918;-65
2021/10/09 16:36:26;;;;;;;;;;;12.10;61.90;;;;;;4991073;28;19914;-65
2021/10/09 16:38:51;;;;;;;;;;;12.00;63.60;;;;;;5005586;28;20010;-65
2021/10/09 16:41:17;;;;;;;;;;;11.80;64.20;;;;;;4986727;28;19988;-65
2021/10/09 16:43:42;;;;;;;;;;;11.50;65.50;;;;;;4999811;28;19913;-64
2021/10/09 16:46:08;;;;;;;;;;;11.50;65.20;;;;;;4993380;28;20004;-65
2021/10/09 16:48:33;;;;;;;;;;;11.40;66.50;;;;;;4998648;28;19913;-65
2021/10/09 16:50:59;;;;;;;;;;;11.30;66.40;;;;;;4994984;28;20362;-65
2021/10/09 16:53:24;;;;;;;;;;;11.30;66.30;;;;;;4995830;28;19920;-65